createdAt,value
2022-08-29T00:03:02.504Z,7.60
2022-08-29T00:08:30.460Z,9.32
2022-08-29T00:13:52.627Z,7.93
2022-08-29T00:19:14.450Z,9.55
2022-08-29T00:24:36.297Z,7.53
2022-08-29T00:29:58.139Z,7.22
2022-08-29T00:35:26.788Z,6.82
2022-08-29T00:40:53.964Z,8.05
2022-08-29T00:46:36.942Z,7.43
2022-08-29T00:52:03.819Z,8.88
2022-08-29T00:57:28.712Z,8.80
2022-08-29T01:02:50.537Z,9.60
2022-08-29T01:08:12.705Z,10.57
2022-08-29T01:13:38.808Z,8.43
2022-08-29T01:19:12.361Z,9.70
2022-08-29T01:24:47.691Z,9.88
2022-08-29T01:30:10.303Z,10.60
2022-08-29T01:35:32.173Z,12.20
2022-08-29T01:40:58.014Z,10.52
2022-08-29T01:46:27.671Z,11.40
2022-08-29T01:51:50.120Z,13.10
2022-08-29T01:57:13.384Z,12.25
2022-08-29T02:02:35.508Z,12.93
2022-08-29T02:07:58.617Z,13.80
2022-08-29T02:13:20.708Z,17.27
2022-08-29T02:18:43.187Z,15.15
2022-08-29T02:24:23.930Z,17.30
2022-08-29T02:29:47.116Z,15.07
2022-08-29T02:35:08.986Z,16.02
2022-08-29T02:40:32.873Z,16.63
2022-08-29T02:45:55.229Z,16.35
2022-08-29T02:51:26.175Z,21.40
2022-08-29T02:56:47.991Z,22.98
2022-08-29T03:02:09.904Z,23.95
2022-08-29T03:07:32.394Z,24.98
2022-08-29T03:12:54.952Z,25.48
2022-08-29T03:18:17.472Z,26.65
2022-08-29T03:23:39.316Z,25.52
2022-08-29T03:29:01.317Z,25.70
2022-08-29T03:34:23.125Z,24.00
2022-08-29T03:39:44.962Z,24.15
2022-08-29T03:45:11.689Z,23.48
2022-08-29T03:50:33.584Z,25.38
2022-08-29T03:55:55.405Z,26.00
2022-08-29T04:01:18.233Z,25.35
2022-08-29T04:06:40.062Z,30.40
2022-08-29T04:12:01.942Z,26.63
2022-08-29T04:17:23.770Z,27.75
2022-08-29T04:22:45.732Z,25.30
2022-08-29T04:28:11.005Z,27.27
2022-08-29T04:33:32.791Z,22.55
2022-08-29T04:38:54.708Z,18.85
2022-08-29T04:44:16.519Z,19.23
2022-08-29T04:49:38.366Z,16.17
2022-08-29T04:55:00.253Z,16.48
2022-08-29T05:00:25.878Z,17.27
2022-08-29T05:05:58.398Z,16.33
2022-08-29T05:11:22.528Z,20.08
2022-08-29T05:16:45.052Z,13.48
2022-08-29T05:22:06.885Z,12.50
2022-08-29T05:27:28.736Z,8.85
2022-08-29T05:32:50.753Z,9.73
2022-08-29T05:38:12.982Z,5.60
2022-08-29T05:43:35.604Z,5.28
2022-08-29T05:48:57.568Z,10.10
2022-08-29T05:54:19.417Z,4.78
2022-08-29T05:59:41.943Z,4.72
2022-08-29T06:05:04.172Z,4.43
2022-08-29T06:10:26.020Z,5.53
2022-08-29T06:15:47.865Z,3.92
2022-08-29T06:21:11.158Z,6.93
2022-08-29T06:26:33.298Z,4.47
2022-08-29T06:31:59.057Z,3.40
2022-08-29T06:37:20.864Z,6.07
2022-08-29T06:42:42.665Z,5.45
2022-08-29T06:48:04.580Z,4.47
2022-08-29T06:53:32.301Z,3.90
2022-08-29T06:58:54.599Z,4.07
2022-08-29T07:04:16.899Z,4.50
2022-08-29T07:15:05.410Z,4.25
2022-08-29T07:20:27.224Z,4.90
2022-08-29T07:25:49.023Z,4.75
2022-08-29T07:31:11.032Z,6.28
2022-08-29T07:36:34.468Z,7.68
2022-08-29T07:41:56.646Z,6.78
2022-08-29T07:47:18.457Z,8.05
2022-08-29T07:52:40.789Z,9.48
2022-08-29T07:58:03.119Z,8.18
2022-08-29T08:03:25.140Z,7.85
2022-08-29T08:08:47.795Z,8.35
2022-08-29T08:14:10.653Z,7.68
2022-08-29T08:19:32.471Z,8.65
2022-08-29T08:24:54.839Z,7.18
2022-08-29T08:30:16.930Z,8.07
2022-08-29T08:35:42.047Z,11.82
2022-08-29T08:41:25.175Z,9.80
2022-08-29T08:46:53.635Z,7.80
2022-08-29T08:52:21.411Z,9.60
2022-08-29T08:57:50.216Z,7.82
2022-08-29T09:03:37.828Z,5.47
2022-08-29T09:09:17.691Z,7.65
2022-08-29T09:14:57.607Z,6.65
2022-08-29T09:20:24.765Z,7.82
2022-08-29T09:25:47.445Z,6.78
2022-08-29T09:31:33.611Z,7.55
2022-08-29T09:36:55.459Z,12.00
2022-08-29T09:42:21.222Z,7.05
2022-08-29T09:47:43.756Z,7.22
2022-08-29T09:53:10.069Z,8.80
2022-08-29T09:58:58.678Z,8.65
2022-08-29T10:04:38.662Z,7.45
2022-08-29T10:10:14.173Z,9.73
2022-08-29T10:15:51.338Z,8.13
2022-08-29T10:21:28.570Z,8.30
2022-08-29T10:27:14.315Z,6.72
2022-08-29T10:32:44.453Z,5.18
2022-08-29T10:38:19.684Z,6.47
2022-08-29T10:44:12.947Z,6.95
2022-08-29T10:49:54.737Z,4.80
2022-08-29T10:55:50.258Z,8.93
2022-08-29T11:01:19.746Z,6.05
2022-08-29T11:06:48.592Z,8.45
2022-08-29T11:12:19.647Z,6.78
2022-08-29T11:17:44.322Z,4.90
2022-08-29T11:23:12.606Z,4.03
2022-08-29T11:28:40.295Z,6.60
2022-08-29T11:34:22.468Z,3.65
2022-08-29T11:39:57.111Z,6.57
2022-08-29T11:45:28.345Z,3.88
2022-08-29T11:50:59.196Z,6.75
2022-08-29T11:56:27.884Z,7.78
2022-08-29T12:01:59.949Z,4.00
2022-08-29T12:07:33.194Z,4.35
2022-08-29T12:12:57.998Z,4.50
2022-08-29T12:18:19.751Z,5.18
2022-08-29T12:23:45.593Z,4.35
2022-08-29T12:34:57.833Z,8.02
2022-08-29T12:40:45.938Z,3.47
2022-08-29T12:46:36.823Z,4.55
2022-08-29T12:52:04.709Z,4.47
2022-08-29T12:57:33.681Z,3.38
2022-08-29T13:03:05.593Z,5.50
2022-08-29T13:08:37.555Z,3.47
2022-08-29T13:14:12.307Z,5.50
2022-08-29T13:19:34.142Z,4.15
2022-08-29T13:25:06.941Z,4.43
2022-08-29T13:30:28.945Z,5.68
2022-08-29T13:35:50.816Z,4.30
2022-08-29T13:41:27.657Z,4.18
2022-08-29T13:46:51.518Z,4.10
2022-08-29T13:52:15.211Z,5.38
2022-08-29T13:57:40.175Z,4.90
2022-08-29T14:03:04.343Z,4.53
2022-08-29T14:08:26.892Z,4.60
2022-08-29T14:13:48.755Z,3.38
2022-08-29T14:19:10.581Z,3.13
2022-08-29T14:24:33.285Z,7.20
2022-08-29T14:29:55.141Z,3.78
2022-08-29T14:35:25.842Z,4.40
2022-08-29T14:40:48.793Z,4.90
2022-08-29T14:46:10.716Z,4.43
2022-08-29T14:51:32.626Z,6.38
2022-08-29T14:56:54.446Z,3.95
2022-08-29T15:02:17.172Z,4.93
2022-08-29T15:07:40.018Z,3.80
2022-08-29T15:13:02.209Z,6.65
2022-08-29T15:18:48.380Z,5.63
2022-08-29T15:24:06.105Z,3.53
2022-08-29T15:29:28.384Z,4.25
2022-08-29T15:34:50.782Z,5.32
2022-08-29T15:40:13.643Z,4.82
2022-08-29T15:45:35.961Z,4.63
2022-08-29T15:50:58.375Z,5.20
2022-08-29T15:56:20.192Z,5.80
2022-08-29T16:01:45.278Z,4.85
2022-08-29T16:07:07.127Z,4.55
2022-08-29T16:12:28.999Z,4.72
2022-08-29T16:17:53.226Z,5.47
2022-08-29T16:23:15.094Z,4.03
2022-08-29T16:28:36.962Z,3.03
2022-08-29T16:33:58.803Z,3.63
2022-08-29T16:39:20.657Z,3.33
2022-08-29T16:44:42.499Z,3.03
2022-08-29T16:50:06.287Z,4.95
2022-08-29T16:55:28.862Z,5.50
2022-08-29T17:00:50.698Z,7.05
2022-08-29T17:06:12.554Z,4.03
2022-08-29T17:11:37.187Z,3.60
2022-08-29T17:16:59.061Z,5.95
2022-08-29T17:22:20.960Z,4.78
2022-08-29T17:27:55.457Z,4.20
2022-08-29T17:33:26.256Z,3.15
2022-08-29T17:38:48.564Z,4.45
2022-08-29T17:44:11.026Z,4.68
2022-08-29T17:49:32.858Z,4.18
2022-08-29T17:54:54.741Z,4.50
2022-08-29T18:00:17.767Z,3.83
2022-08-29T18:05:39.676Z,4.13
2022-08-29T18:11:02.038Z,4.85
2022-08-29T18:16:23.892Z,4.32
2022-08-29T18:21:45.759Z,4.57
2022-08-29T18:27:07.597Z,6.65
2022-08-29T18:32:29.697Z,3.22
2022-08-29T18:37:59.154Z,5.47
2022-08-29T18:43:21.019Z,5.25
2022-08-29T18:48:42.923Z,4.53
2022-08-29T18:54:04.919Z,4.38
2022-08-29T18:59:26.852Z,5.15
2022-08-29T19:04:48.745Z,5.80
2022-08-29T19:10:11.840Z,4.50
2022-08-29T19:15:34.796Z,8.38
2022-08-29T19:21:03.908Z,4.57
2022-08-29T19:26:32.240Z,4.85
2022-08-29T19:31:54.121Z,5.13
2022-08-29T19:37:15.960Z,5.75
2022-08-29T19:42:38.897Z,4.57
2022-08-29T19:48:00.740Z,5.97
2022-08-29T19:53:26.614Z,6.35
2022-08-29T19:58:49.488Z,12.87
2022-08-29T20:04:12.646Z,3.70
2022-08-29T20:09:35.379Z,5.60
2022-08-29T20:14:57.211Z,4.95
2022-08-29T20:20:26.745Z,6.80
2022-08-29T20:25:48.589Z,5.05
2022-08-29T20:31:10.761Z,6.55
2022-08-29T20:36:32.641Z,3.67
2022-08-29T20:41:57.569Z,5.80
2022-08-29T20:47:20.696Z,5.13
2022-08-29T20:52:42.517Z,5.05
2022-08-29T20:58:04.381Z,5.03
2022-08-29T21:03:26.547Z,5.47
2022-08-29T21:08:48.542Z,6.70
2022-08-29T21:14:10.449Z,5.88
2022-08-29T21:19:32.881Z,7.72
2022-08-29T21:24:55.161Z,7.38
2022-08-29T21:30:16.988Z,8.93
2022-08-29T21:35:40.677Z,7.68
2022-08-29T21:41:02.869Z,6.07
2022-08-29T21:46:31.002Z,5.13
2022-08-29T21:51:53.040Z,10.98
2022-08-29T21:57:15.246Z,5.47
2022-08-29T22:02:37.112Z,5.05
2022-08-29T22:07:59.297Z,5.43
2022-08-29T22:13:21.103Z,4.18
2022-08-29T22:18:42.917Z,6.82
2022-08-29T22:24:05.534Z,5.85
2022-08-29T22:29:27.417Z,5.95
2022-08-29T22:34:49.251Z,7.93
2022-08-29T22:40:15.181Z,7.43
2022-08-29T22:45:37.059Z,6.73
2022-08-29T22:50:58.898Z,7.63
2022-08-29T22:56:20.704Z,6.50
2022-08-29T23:01:43.964Z,5.80
2022-08-29T23:07:07.051Z,5.55
2022-08-29T23:12:29.163Z,7.40
2022-08-29T23:17:51.057Z,6.55
2022-08-29T23:23:12.967Z,7.80
2022-08-29T23:28:34.817Z,8.05
2022-08-29T23:33:56.667Z,6.68
2022-08-29T23:39:18.569Z,5.78
2022-08-29T23:44:40.376Z,6.40
2022-08-29T23:50:03.192Z,6.53
2022-08-29T23:55:25.003Z,7.05
